Time;durP1;ratioP1;P1;durP2;ratioP2;P2;SDS_P1;SDS_P2;PMS_P1;PMS_P2;Temp;Humidity;BMP_temperature;BMP_pressure;BME280_temperature;BME280_humidity;BME280_pressure;Samples;Min_cycle;Max_cycle;Signal;HPM_P1;HPM_P2
2022/10/20 00:00:00;;;;;;;;;;;;;;;21.01;28.01;98068.56;4906432;29;776;-78
2022/10/20 00:06:07;;;;;;;;;;;;;;;20.87;28.79;98069.69;4941007;29;1903;-79
2022/10/20 00:08:32;;;;;;;;;;;;;;;21.36;27.78;98083.16;4926746;29;923;-78
2022/10/20 00:10:58;;;;;;;;;;;;;;;21.54;27.46;98080.66;4929625;29;1239;-78
2022/10/20 00:17:00;;;;;;;;;;;;;;;21.04;28.38;98084.69;4962333;29;688;-78
2022/10/20 00:19:26;;;;;;;;;;;;;;;21.12;28.77;98086.09;4945676;29;728;-78
2022/10/20 00:21:51;;;;;;;;;;;;;;;21.50;27.83;98088.44;4906423;29;1297;-78
2022/10/20 00:27:52;;;;;;;;;;;;;;;20.98;28.76;98080.75;4921771;29;594;-78
2022/10/20 00:30:17;;;;;;;;;;;;;;;20.90;29.01;98082.16;4905992;29;1234;-78
2022/10/20 00:32:42;;;;;;;;;;;;;;;20.95;28.54;98092.97;4922012;29;843;-78
2022/10/20 00:38:43;;;;;;;;;;;;;;;21.54;28.36;98089.16;4921587;29;661;-79
2022/10/20 00:41:10;;;;;;;;;;;;;;;21.23;28.46;98086.63;4905946;29;1141;-78
2022/10/20 00:43:42;;;;;;;;;;;;;;;20.93;28.97;98075.63;4921230;29;860;-78
2022/10/20 00:49:42;;;;;;;;;;;;;;;21.14;29.00;98089.28;4921583;29;665;-78
2022/10/20 00:52:07;;;;;;;;;;;;;;;21.43;28.57;98082.97;4913231;29;1344;-78
2022/10/20 00:54:33;;;;;;;;;;;;;;;21.61;28.24;98085.38;4928032;29;1394;-77
2022/10/20 00:56:58;;;;;;;;;;;;;;;21.16;28.93;98080.34;4944518;29;1135;-78
2022/10/20 00:59:25;;;;;;;;;;;;;;;21.12;28.74;98080.44;4928654;29;788;-77
2022/10/20 01:01:50;;;;;;;;;;;;;;;20.98;29.20;98080.75;4944404;29;831;-78
2022/10/20 01:04:16;;;;;;;;;;;;;;;21.11;29.40;98084.50;4944662;29;791;-78
2022/10/20 01:06:41;;;;;;;;;;;;;;;21.39;28.78;98097.19;4928535;29;1918;-78
2022/10/20 01:09:07;;;;;;;;;;;;;;;21.43;29.08;98099.94;4944356;29;1224;-78
2022/10/20 01:11:32;;;;;;;;;;;;;;;21.11;29.33;98112.81;4944239;29;847;-78
2022/10/20 01:13:58;;;;;;;;;;;;;;;21.05;29.25;98112.53;4944286;29;1147;-78
2022/10/20 01:16:23;;;;;;;;;;;;;;;21.05;29.36;98118.19;4944368;29;1253;-78
2022/10/20 01:18:52;;;;;;;;;;;;;;;20.88;29.71;98115.72;4944200;29;1325;-77
2022/10/20 01:21:20;;;;;;;;;;;;;;;21.20;29.44;98123.53;4961216;29;732;-77
2022/10/20 01:23:45;;;;;;;;;;;;;;;21.62;28.67;98115.28;4961097;29;798;-77
2022/10/20 01:26:26;;;;;;;;;;;;;;;21.16;29.41;98103.78;4944363;29;1914;-77
2022/10/20 01:29:04;;;;;;;;;;;;;;;21.08;29.38;98113.66;4944056;29;1115;-78
2022/10/20 01:31:33;;;;;;;;;;;;;;;20.99;29.52;98113.50;4943683;29;1112;-78
2022/10/20 01:34:03;;;;;;;;;;;;;;;21.37;29.38;98113.03;4943816;29;1109;-77
2022/10/20 01:36:33;;;;;;;;;;;;;;;21.49;29.17;98103.84;4943798;29;772;-78
2022/10/20 01:39:06;;;;;;;;;;;;;;;21.52;28.95;98106.59;4943423;29;820;-78
2022/10/20 01:41:33;;;;;;;;;;;;;;;21.03;29.63;98105.69;4943721;29;791;-78
2022/10/20 01:44:01;;;;;;;;;;;;;;;21.03;29.75;98106.50;4904803;29;1130;-77
2022/10/20 01:46:27;;;;;;;;;;;;;;;20.94;29.71;98103.47;4920555;29;2061;-78
2022/10/20 01:48:52;;;;;;;;;;;;;;;21.28;29.59;98108.75;4905007;29;1306;-79
2022/10/20 01:51:18;;;;;;;;;;;;;;;21.40;29.49;98112.16;4920142;29;1103;-78
2022/10/20 01:53:43;;;;;;;;;;;;;;;21.41;29.20;98122.25;4882973;29;1255;-77
2022/10/20 01:56:12;;;;;;;;;;;;;;;21.10;29.65;98119.69;4882797;29;904;-78
2022/10/20 01:58:43;;;;;;;;;;;;;;;20.99;29.98;98124.81;4867137;29;1150;-78
2022/10/20 02:01:15;;;;;;;;;;;;;;;21.06;29.82;98124.63;4882456;29;1189;-78
2022/10/20 02:03:40;;;;;;;;;;;;;;;21.21;29.63;98123.06;4864073;29;1192;-78
2022/10/20 02:06:06;;;;;;;;;;;;;;;21.43;29.34;98133.91;4863360;29;1980;-78
2022/10/20 02:08:34;;;;;;;;;;;;;;;21.81;28.84;98137.84;4863679;29;826;-78
2022/10/20 02:11:00;;;;;;;;;;;;;;;21.26;29.64;98136.69;4863603;29;781;-78
2022/10/20 02:13:26;;;;;;;;;;;;;;;21.05;29.74;98148.50;4863841;29;1155;-79
2022/10/20 02:15:52;;;;;;;;;;;;;;;20.97;30.18;98141.41;4865366;29;1113;-78
2022/10/20 02:18:19;;;;;;;;;;;;;;;21.05;29.75;98149.31;4900578;29;828;-79
2022/10/20 02:20:46;;;;;;;;;;;;;;;21.41;29.41;98148.53;4869828;29;1131;-78
2022/10/20 02:23:11;;;;;;;;;;;;;;;21.42;29.35;98149.31;4885065;29;805;-78
2022/10/20 02:25:37;;;;;;;;;;;;;;;21.09;29.87;98149.22;4901419;29;1994;-78
2022/10/20 02:28:02;;;;;;;;;;;;;;;21.12;29.80;98159.66;4903829;29;872;-78
2022/10/20 02:30:28;;;;;;;;;;;;;;;21.02;30.12;98161.47;4904190;29;1234;-78
2022/10/20 02:32:53;;;;;;;;;;;;;;;21.27;29.72;98160.13;4903857;29;1325;-78
2022/10/20 02:38:53;;;;;;;;;;;;;;;21.45;29.44;98154.09;4900598;29;977;-77
2022/10/20 02:41:18;;;;;;;;;;;;;;;21.17;29.79;98161.19;4903971;29;1221;-78
2022/10/20 02:43:44;;;;;;;;;;;;;;;21.36;29.55;98162.41;4903701;29;1114;-78
2022/10/20 02:46:09;;;;;;;;;;;;;;;21.28;29.71;98156.06;4903318;29;1902;-77
2022/10/20 02:48:37;;;;;;;;;;;;;;;21.43;29.85;98146.03;4919204;29;920;-78
2022/10/20 02:51:03;;;;;;;;;;;;;;;21.40;29.87;98154.59;4888075;29;1088;-78
2022/10/20 02:53:28;;;;;;;;;;;;;;;21.32;29.69;98160.44;4900183;29;1139;-78
2022/10/20 02:55:54;;;;;;;;;;;;;;;21.13;30.00;98168.94;4873809;29;1114;-77
2022/10/20 02:58:19;;;;;;;;;;;;;;;21.32;29.59;98168.94;4826305;29;1171;-78
2022/10/20 03:00:45;;;;;;;;;;;;;;;21.23;29.72;98171.53;4826544;29;822;-78
2022/10/20 03:03:10;;;;;;;;;;;;;;;21.28;30.08;98178.72;4826184;29;820;-78
2022/10/20 03:05:40;;;;;;;;;;;;;;;21.48;29.94;98173.03;4833920;29;1976;-78
2022/10/20 03:08:06;;;;;;;;;;;;;;;21.19;29.79;98170.84;4847476;29;876;-78
2022/10/20 03:10:32;;;;;;;;;;;;;;;21.20;29.90;98178.09;4862858;29;813;-78
2022/10/20 03:12:57;;;;;;;;;;;;;;;21.09;29.92;98174.69;4876820;29;873;-78
2022/10/20 03:15:22;;;;;;;;;;;;;;;21.21;29.69;98176.84;4850298;29;1225;-78
2022/10/20 03:17:48;;;;;;;;;;;;;;;21.07;30.17;98179.97;4880707;29;811;-78
2022/10/20 03:20:13;;;;;;;;;;;;;;;21.42;30.07;98171.97;4880881;29;790;-78
2022/10/20 03:22:39;;;;;;;;;;;;;;;21.56;29.57;98177.31;4865647;29;1282;-77
2022/10/20 03:25:04;;;;;;;;;;;;;;;21.26;30.27;98184.03;4894925;29;1907;-78
2022/10/20 03:27:30;;;;;;;;;;;;;;;20.97;30.52;98187.44;4900013;29;816;-79
2022/10/20 03:29:55;;;;;;;;;;;;;;;20.96;30.74;98196.38;4932195;29;960;-78
2022/10/20 03:32:39;;;;;;;;;;;;;;;21.12;30.06;98192.81;4926083;29;1261;-79
2022/10/20 03:35:05;;;;;;;;;;;;;;;21.16;30.07;98193.53;4956579;29;866;-78
2022/10/20 03:37:30;;;;;;;;;;;;;;;21.29;30.29;98198.06;4925050;29;1117;-78
2022/10/20 03:39:55;;;;;;;;;;;;;;;21.45;29.93;98205.84;4924782;29;954;-78
2022/10/20 03:42:21;;;;;;;;;;;;;;;21.31;29.79;98209.81;4956944;29;697;-78
2022/10/20 03:44:46;;;;;;;;;;;;;;;21.10;30.45;98201.75;4906207;29;1198;-79
2022/10/20 03:47:12;;;;;;;;;;;;;;;20.95;30.53;98212.56;4937273;29;1914;-79
2022/10/20 03:49:37;;;;;;;;;;;;;;;21.12;30.19;98204.94;4937252;29;961;-78
2022/10/20 03:52:03;;;;;;;;;;;;;;;21.16;30.52;98211.31;4921592;29;1110;-79
2022/10/20 03:54:28;;;;;;;;;;;;;;;21.46;30.32;98223.63;4921693;29;1145;-78
2022/10/20 03:56:54;;;;;;;;;;;;;;;21.64;29.90;98224.00;4937409;29;748;-78
2022/10/20 03:59:19;;;;;;;;;;;;;;;21.07;30.47;98230.91;4921766;29;1153;-78
2022/10/20 04:01:44;;;;;;;;;;;;;;;21.14;30.38;98233.59;4937166;29;784;-78
2022/10/20 04:04:10;;;;;;;;;;;;;;;21.10;30.45;98240.56;4937301;29;788;-79
2022/10/20 04:06:35;;;;;;;;;;;;;;;20.99;30.46;98249.28;4910698;29;1979;-78
2022/10/20 04:09:01;;;;;;;;;;;;;;;21.41;30.34;98238.31;4937268;29;693;-78
2022/10/20 04:11:26;;;;;;;;;;;;;;;21.35;30.33;98242.88;4937285;29;810;-78
2022/10/20 04:13:52;;;;;;;;;;;;;;;21.35;30.26;98245.69;4937475;29;815;-79
2022/10/20 04:16:17;;;;;;;;;;;;;;;21.23;30.34;98242.28;4952051;29;900;-78
2022/10/20 04:18:43;;;;;;;;;;;;;;;21.03;30.53;98253.59;4941675;29;875;-78
2022/10/20 04:21:08;;;;;;;;;;;;;;;21.25;31.03;98253.19;4941678;29;1121;-78
2022/10/20 04:23:34;;;;;;;;;;;;;;;21.40;30.30;98259.34;4958451;29;819;-78
2022/10/20 04:29:34;;;;;;;;;;;;;;;21.41;30.22;98255.28;4961857;29;632;-78
2022/10/20 04:32:00;;;;;;;;;;;;;;;21.18;30.29;98248.44;4944970;29;716;-78
2022/10/20 04:34:25;;;;;;;;;;;;;;;21.10;30.29;98255.50;4944948;29;725;-78
2022/10/20 04:36:51;;;;;;;;;;;;;;;21.11;30.47;98254.25;4945115;29;1261;-78
2022/10/20 04:39:16;;;;;;;;;;;;;;;21.10;30.23;98258.34;4943994;29;1332;-78
2022/10/20 04:41:42;;;;;;;;;;;;;;;20.94;30.86;98266.75;4959678;29;959;-78
2022/10/20 04:44:07;;;;;;;;;;;;;;;20.94;30.90;98278.06;4943689;29;1144;-78
2022/10/20 04:46:32;;;;;;;;;;;;;;;21.04;30.91;98271.41;4943653;29;1991;-78
2022/10/20 04:48:58;;;;;;;;;;;;;;;21.31;30.72;98274.09;4943426;29;810;-78
2022/10/20 04:54:39;;;;;;;;;;;;;;;21.05;31.11;98287.13;4959529;29;959;-78
2022/10/20 04:57:05;;;;;;;;;;;;;;;21.00;30.90;98288.44;4943581;29;953;-78
2022/10/20 04:59:30;;;;;;;;;;;;;;;21.00;30.86;98290.47;4940171;29;1200;-78
2022/10/20 05:01:56;;;;;;;;;;;;;;;21.28;30.72;98301.19;4924514;29;828;-79
2022/10/20 05:04:21;;;;;;;;;;;;;;;21.48;30.37;98306.88;4924260;29;1138;-78
2022/10/20 05:06:47;;;;;;;;;;;;;;;21.63;30.01;98300.91;4924218;29;1915;-79
2022/10/20 05:09:13;;;;;;;;;;;;;;;21.29;30.70;98311.28;4924295;29;868;-78
2022/10/20 05:11:38;;;;;;;;;;;;;;;21.26;30.77;98315.00;4940196;29;1133;-79
2022/10/20 05:14:03;;;;;;;;;;;;;;;21.39;30.23;98320.03;4940001;29;1319;-79
2022/10/20 05:16:29;;;;;;;;;;;;;;;21.10;30.60;98331.91;4940037;29;1208;-79
2022/10/20 05:18:56;;;;;;;;;;;;;;;20.99;31.16;98342.63;4940148;29;830;-77
2022/10/20 05:21:23;;;;;;;;;;;;;;;21.01;31.09;98357.13;4924271;29;819;-78
2022/10/20 05:23:53;;;;;;;;;;;;;;;20.94;30.94;98357.28;4939810;29;874;-77
2022/10/20 05:26:19;;;;;;;;;;;;;;;21.19;31.24;98356.78;4939694;29;1909;-77
2022/10/20 05:28:45;;;;;;;;;;;;;;;21.59;30.49;98354.78;4923650;29;847;-78
2022/10/20 05:31:10;;;;;;;;;;;;;;;21.40;30.50;98362.06;4916444;29;940;-79
2022/10/20 05:33:36;;;;;;;;;;;;;;;21.19;30.93;98368.91;4905146;29;1224;-78
2022/10/20 05:36:08;;;;;;;;;;;;;;;21.08;31.09;98360.59;4920117;29;919;-78
2022/10/20 05:38:35;;;;;;;;;;;;;;;21.14;30.66;98372.25;4904718;29;1256;-77
2022/10/20 05:41:09;;;;;;;;;;;;;;;21.29;30.83;98384.88;4920437;29;932;-78
2022/10/20 05:43:35;;;;;;;;;;;;;;;21.38;30.50;98375.84;4904475;29;721;-77
2022/10/20 05:46:00;;;;;;;;;;;;;;;21.22;30.48;98376.53;4920209;29;1911;-78
2022/10/20 05:48:26;;;;;;;;;;;;;;;21.25;30.41;98384.16;4920716;29;744;-79
2022/10/20 05:50:51;;;;;;;;;;;;;;;21.29;30.15;98386.91;4901040;29;866;-79
2022/10/20 05:53:17;;;;;;;;;;;;;;;21.01;30.78;98402.38;4901215;29;1253;-79
2022/10/20 05:55:42;;;;;;;;;;;;;;;21.02;31.49;98409.63;4916724;29;860;-80
2022/10/20 05:58:08;;;;;;;;;;;;;;;21.40;30.61;98406.53;4901294;29;1298;-79
2022/10/20 06:00:40;;;;;;;;;;;;;;;21.47;30.39;98417.75;4885542;29;1216;-79
2022/10/20 06:03:06;;;;;;;;;;;;;;;21.40;30.50;98423.53;4905963;29;824;-78
2022/10/20 06:05:31;;;;;;;;;;;;;;;21.23;30.41;98426.22;4938600;29;1910;-78
2022/10/20 06:07:57;;;;;;;;;;;;;;;21.17;30.45;98427.97;4923366;29;1154;-78
2022/10/20 06:10:23;;;;;;;;;;;;;;;20.96;30.76;98434.78;4922886;29;1128;-78
2022/10/20 06:12:48;;;;;;;;;;;;;;;21.07;30.94;98428.94;4922888;29;823;-78
2022/10/20 06:15:14;;;;;;;;;;;;;;;21.18;31.25;98440.88;4938590;29;764;-77
2022/10/20 06:17:39;;;;;;;;;;;;;;;21.37;30.66;98447.06;4923650;29;1239;-77
2022/10/20 06:20:05;;;;;;;;;;;;;;;21.16;30.71;98454.66;4939183;29;1113;-77
2022/10/20 06:22:30;;;;;;;;;;;;;;;20.95;31.25;98449.38;4918238;29;895;-77
2022/10/20 06:24:56;;;;;;;;;;;;;;;20.92;31.16;98455.88;4938021;29;913;-78
2022/10/20 06:27:21;;;;;;;;;;;;;;;21.33;30.98;98447.91;4938177;29;1906;-79
2022/10/20 06:29:47;;;;;;;;;;;;;;;21.37;30.92;98458.38;4938443;29;878;-79
2022/10/20 06:32:12;;;;;;;;;;;;;;;21.35;30.54;98455.16;4919396;29;829;-79
2022/10/20 06:34:38;;;;;;;;;;;;;;;21.24;30.55;98456.16;4919096;29;772;-79
2022/10/20 06:37:03;;;;;;;;;;;;;;;21.23;30.38;98457.34;4918970;29;772;-79
2022/10/20 06:39:29;;;;;;;;;;;;;;;21.09;30.49;98471.78;4919204;29;701;-79
2022/10/20 06:41:54;;;;;;;;;;;;;;;21.07;30.47;98471.38;4935248;29;1218;-78
2022/10/20 06:44:20;;;;;;;;;;;;;;;21.25;30.77;98471.91;4919318;29;1320;-79
2022/10/20 06:46:46;;;;;;;;;;;;;;;21.31;30.65;98466.56;4919206;29;1978;-79
2022/10/20 06:49:11;;;;;;;;;;;;;;;21.33;30.52;98476.22;4919045;29;942;-79
2022/10/20 06:51:37;;;;;;;;;;;;;;;20.92;31.14;98478.50;4903099;29;1225;-79
2022/10/20 06:54:02;;;;;;;;;;;;;;;21.13;30.66;98477.34;4932752;29;1073;-78
2022/10/20 06:56:28;;;;;;;;;;;;;;;21.09;30.68;98483.09;4922281;29;1113;-78
2022/10/20 06:58:54;;;;;;;;;;;;;;;21.28;31.04;98485.16;4954040;29;1172;-79
2022/10/20 07:01:23;;;;;;;;;;;;;;;21.42;30.30;98494.69;4937943;29;1256;-79
2022/10/20 07:03:49;;;;;;;;;;;;;;;21.28;30.29;98481.53;4953632;29;854;-78
2022/10/20 07:06:15;;;;;;;;;;;;;;;21.01;30.91;98492.91;4953873;29;1906;-79
2022/10/20 07:08:40;;;;;;;;;;;;;;;21.03;30.59;98490.44;4955793;29;833;-79
2022/10/20 07:11:07;;;;;;;;;;;;;;;20.92;30.63;98495.50;4941801;29;784;-79
2022/10/20 07:13:32;;;;;;;;;;;;;;;21.18;30.80;98494.63;4926354;29;796;-78
2022/10/20 07:15:58;;;;;;;;;;;;;;;21.39;30.71;98495.53;4926231;29;1281;-78
2022/10/20 07:18:24;;;;;;;;;;;;;;;21.28;30.42;98507.81;4925218;29;1150;-80
2022/10/20 07:20:49;;;;;;;;;;;;;;;21.35;30.20;98494.78;4921841;29;1132;-78
2022/10/20 07:23:15;;;;;;;;;;;;;;;21.30;30.06;98499.75;4921628;29;787;-79
2022/10/20 07:25:40;;;;;;;;;;;;;;;21.31;30.39;98504.16;4921527;29;1910;-79
2022/10/20 07:28:05;;;;;;;;;;;;;;;20.91;30.91;98500.34;4921685;29;749;-78
2022/10/20 07:30:31;;;;;;;;;;;;;;;21.23;30.81;98501.84;4921441;29;909;-79
2022/10/20 07:32:56;;;;;;;;;;;;;;;21.50;30.06;98501.78;4921686;29;1207;-79
2022/10/20 07:35:22;;;;;;;;;;;;;;;21.32;30.12;98511.41;4937396;29;859;-79
2022/10/20 07:37:48;;;;;;;;;;;;;;;21.29;30.33;98509.41;4937774;29;791;-78
2022/10/20 07:40:13;;;;;;;;;;;;;;;21.08;30.63;98510.56;4921606;29;806;-79
2022/10/20 07:42:39;;;;;;;;;;;;;;;21.19;30.40;98520.91;4921560;29;717;-79
2022/10/20 07:45:05;;;;;;;;;;;;;;;21.24;30.69;98518.41;4922031;29;1902;-79
2022/10/20 07:47:30;;;;;;;;;;;;;;;21.46;30.11;98515.25;4921791;29;1134;-79
2022/10/20 07:49:55;;;;;;;;;;;;;;;21.06;30.43;98517.91;4902561;29;1236;-79
2022/10/20 07:52:21;;;;;;;;;;;;;;;21.06;30.38;98517.91;4886738;29;1038;-78
2022/10/20 07:54:46;;;;;;;;;;;;;;;20.97;30.34;98515.59;4918326;29;748;-78
2022/10/20 07:57:12;;;;;;;;;;;;;;;20.80;30.59;98511.84;4918370;29;835;-78
2022/10/20 07:59:37;;;;;;;;;;;;;;;21.03;30.66;98518.75;4918026;29;927;-79
2022/10/20 08:02:03;;;;;;;;;;;;;;;21.29;30.00;98520.72;4918026;29;761;-79
2022/10/20 08:04:30;;;;;;;;;;;;;;;21.43;29.74;98518.91;4905757;29;968;-78
2022/10/20 08:06:56;;;;;;;;;;;;;;;21.38;29.77;98533.56;4887406;29;1910;-79
2022/10/20 08:09:21;;;;;;;;;;;;;;;20.91;30.10;98527.84;4872005;29;1125;-78
2022/10/20 08:11:47;;;;;;;;;;;;;;;20.88;30.43;98523.84;4887809;29;926;-79
2022/10/20 08:14:12;;;;;;;;;;;;;;;21.01;30.30;98541.00;4902985;29;967;-79
2022/10/20 08:16:39;;;;;;;;;;;;;;;21.49;29.24;98539.84;4868700;29;1158;-78
2022/10/20 08:19:04;;;;;;;;;;;;;;;21.47;29.51;98536.66;4884279;29;822;-78
2022/10/20 08:21:31;;;;;;;;;;;;;;;21.14;29.56;98530.72;4869066;29;1134;-79
2022/10/20 08:24:01;;;;;;;;;;;;;;;20.98;30.25;98536.19;4850448;29;1427;-78
2022/10/20 08:26:27;;;;;;;;;;;;;;;20.95;29.86;98534.25;4865567;29;1915;-78
2022/10/20 08:28:52;;;;;;;;;;;;;;;21.30;29.54;98547.84;4850330;29;1214;-79
2022/10/20 08:31:18;;;;;;;;;;;;;;;21.29;29.33;98534.09;4865395;29;915;-78
2022/10/20 08:36:47;;;;;;;;;;;;;;;20.92;29.96;98535.09;4867428;29;1154;-78
2022/10/20 08:39:13;;;;;;;;;;;;;;;20.93;29.70;98536.69;4902586;29;953;-78
2022/10/20 08:41:39;;;;;;;;;;;;;;;21.02;29.87;98534.13;4902932;29;1246;-78
2022/10/20 08:44:05;;;;;;;;;;;;;;;21.45;28.91;98533.44;4883589;29;1241;-79
2022/10/20 08:46:34;;;;;;;;;;;;;;;21.46;29.06;98537.88;4869058;29;1910;-78
2022/10/20 08:48:59;;;;;;;;;;;;;;;21.04;29.35;98540.16;4902348;29;827;-79
2022/10/20 08:51:27;;;;;;;;;;;;;;;21.00;29.45;98543.03;4868435;29;1325;-79
2022/10/20 08:53:53;;;;;;;;;;;;;;;20.85;29.36;98541.66;4848013;29;1103;-79
2022/10/20 08:56:22;;;;;;;;;;;;;;;21.20;29.34;98554.47;4858105;29;1274;-79
2022/10/20 08:58:47;;;;;;;;;;;;;;;21.39;29.08;98552.16;4849092;29;1229;-76
2022/10/20 09:01:15;;;;;;;;;;;;;;;21.63;28.52;98550.91;4843535;29;1206;-79
2022/10/20 09:03:41;;;;;;;;;;;;;;;21.15;28.94;98554.94;4843444;29;1131;-78
2022/10/20 09:06:13;;;;;;;;;;;;;;;21.14;28.84;98553.34;4843695;29;1927;-79
2022/10/20 09:08:38;;;;;;;;;;;;;;;21.03;28.89;98558.34;4828108;29;947;-79
2022/10/20 09:11:04;;;;;;;;;;;;;;;21.27;28.83;98554.34;4827876;29;704;-79
2022/10/20 09:13:30;;;;;;;;;;;;;;;21.45;28.40;98547.59;4842891;29;1354;-79
2022/10/20 09:16:00;;;;;;;;;;;;;;;21.21;28.67;98547.56;4859652;29;837;-80
2022/10/20 09:18:26;;;;;;;;;;;;;;;21.00;29.15;98559.22;4872143;29;1328;-79
2022/10/20 09:20:52;;;;;;;;;;;;;;;20.85;29.60;98563.50;4894093;29;1229;-78
2022/10/20 09:23:26;;;;;;;;;;;;;;;21.20;28.65;98573.47;4893960;29;1435;-79
2022/10/20 09:25:52;;;;;;;;;;;;;;;21.29;28.68;98571.66;4901962;29;1988;-84
2022/10/20 09:28:25;;;;;;;;;;;;;;;21.17;28.81;98575.13;4924051;29;1130;-79
2022/10/20 09:30:51;;;;;;;;;;;;;;;21.03;29.07;98566.84;4920485;29;1081;-79
2022/10/20 09:33:27;;;;;;;;;;;;;;;20.85;28.99;98567.13;4904753;29;1236;-79
2022/10/20 09:35:52;;;;;;;;;;;;;;;20.89;29.45;98569.91;4889085;29;1146;-79
2022/10/20 09:38:21;;;;;;;;;;;;;;;21.25;28.78;98564.50;4920368;29;888;-79
2022/10/20 09:41:05;;;;;;;;;;;;;;;21.63;28.24;98567.91;4920558;29;956;-79
2022/10/20 09:43:31;;;;;;;;;;;;;;;21.04;28.74;98568.47;4920585;29;776;-79
2022/10/20 09:46:02;;;;;;;;;;;;;;;20.94;28.79;98567.41;4920163;29;1914;-79
2022/10/20 09:48:29;;;;;;;;;;;;;;;21.02;28.52;98568.88;4920272;29;772;-80
2022/10/20 09:50:55;;;;;;;;;;;;;;;21.24;28.54;98577.03;4920483;29;888;-79
2022/10/20 09:53:22;;;;;;;;;;;;;;;21.40;28.34;98576.38;4920344;29;1108;-79
2022/10/20 09:55:48;;;;;;;;;;;;;;;21.17;28.41;98569.47;4920371;29;816;-79
2022/10/20 09:58:22;;;;;;;;;;;;;;;20.87;29.01;98578.00;4920030;29;883;-79
2022/10/20 10:04:30;;;;;;;;;;;;;;;21.20;28.58;98574.28;4920165;29;693;-79
2022/10/20 10:06:56;;;;;;;;;;;;;;;21.64;28.02;98575.16;4934319;29;1910;-79
2022/10/20 10:09:24;;;;;;;;;;;;;;;21.28;28.10;98570.06;4943321;29;720;-79
2022/10/20 10:11:55;;;;;;;;;;;;;;;21.00;28.59;98577.00;4943202;29;725;-80
2022/10/20 10:14:22;;;;;;;;;;;;;;;21.12;28.35;98581.25;4943394;29;1208;-79
2022/10/20 10:16:47;;;;;;;;;;;;;;;20.91;28.72;98581.59;4943250;29;764;-79
2022/10/20 10:19:16;;;;;;;;;;;;;;;20.93;28.92;98581.94;4942705;29;824;-79
2022/10/20 10:21:46;;;;;;;;;;;;;;;21.27;28.29;98579.81;4943151;29;1197;-79
2022/10/20 10:24:41;;;;;;;;;;;;;;;21.27;28.29;98582.63;4927564;29;1119;-79
2022/10/20 10:27:26;;;;;;;;;;;;;;;21.04;28.50;98571.28;4881459;29;1972;-79
2022/10/20 10:29:52;;;;;;;;;;;;;;;21.04;28.61;98571.28;4885624;29;836;-79
2022/10/20 10:32:17;;;;;;;;;;;;;;;20.90;28.78;98571.50;4900636;29;1094;-79
2022/10/20 10:34:46;;;;;;;;;;;;;;;20.98;28.80;98578.63;4900603;29;816;-79
2022/10/20 10:37:13;;;;;;;;;;;;;;;21.34;28.33;98576.06;4900629;29;958;-79
2022/10/20 10:39:39;;;;;;;;;;;;;;;21.50;27.79;98566.91;4900527;29;733;-79
2022/10/20 10:42:13;;;;;;;;;;;;;;;20.93;28.80;98570.63;4885244;29;808;-79
2022/10/20 10:44:44;;;;;;;;;;;;;;;20.98;28.68;98561.66;4900421;29;1056;-79
2022/10/20 10:47:15;;;;;;;;;;;;;;;20.88;28.77;98563.44;4885229;29;1976;-79
2022/10/20 10:49:43;;;;;;;;;;;;;;;20.86;28.72;98570.75;4900555;29;1018;-79
2022/10/20 10:52:35;;;;;;;;;;;;;;;21.18;28.34;98571.06;4884695;29;1224;-79
2022/10/20 10:55:09;;;;;;;;;;;;;;;21.46;27.79;98569.03;4883811;29;1240;-79
2022/10/20 10:57:47;;;;;;;;;;;;;;;20.90;28.98;98569.47;4884760;29;1367;-79
2022/10/20 11:03:54;;;;;;;;;;;;;;;20.70;29.02;98565.72;4936648;29;1095;-79
2022/10/20 11:06:19;;;;;;;;;;;;;;;21.29;28.15;98565.22;4942262;29;1914;-79
2022/10/20 11:09:03;;;;;;;;;;;;;;;21.26;28.15;98555.56;4942444;29;1108;-79
2022/10/20 11:11:47;;;;;;;;;;;;;;;21.18;27.98;98562.56;4959384;29;745;-79
2022/10/20 11:14:22;;;;;;;;;;;;;;;20.87;29.01;98561.03;4942835;29;1262;-79
2022/10/20 11:17:04;;;;;;;;;;;;;;;20.87;28.67;98555.38;4942543;29;1132;-79
2022/10/20 11:23:11;;;;;;;;;;;;;;;21.21;28.30;98558.09;4959081;29;586;-79
2022/10/20 11:25:37;;;;;;;;;;;;;;;21.24;28.03;98563.69;4942044;29;1914;-79
2022/10/20 11:28:02;;;;;;;;;;;;;;;21.13;28.46;98560.22;4942013;29;1147;-79
2022/10/20 11:30:27;;;;;;;;;;;;;;;21.08;28.28;98561.50;4921959;29;959;-79
2022/10/20 11:33:11;;;;;;;;;;;;;;;21.14;28.41;98559.00;4937835;29;926;-79
2022/10/20 11:35:37;;;;;;;;;;;;;;;21.45;27.96;98558.91;4937386;29;844;-79
2022/10/20 11:38:02;;;;;;;;;;;;;;;21.64;27.48;98561.00;4921427;29;1133;-79
2022/10/20 11:40:31;;;;;;;;;;;;;;;21.02;28.21;98556.75;4921532;29;1086;-79
2022/10/20 11:42:59;;;;;;;;;;;;;;;20.95;28.85;98562.53;4921376;29;911;-80
2022/10/20 11:45:27;;;;;;;;;;;;;;;20.84;28.54;98561.91;4921206;29;1980;-78
2022/10/20 11:48:10;;;;;;;;;;;;;;;20.93;28.70;98559.31;4921568;29;767;-78
2022/10/20 11:50:36;;;;;;;;;;;;;;;21.19;28.28;98555.69;4937209;29;791;-79
2022/10/20 11:53:13;;;;;;;;;;;;;;;21.42;27.76;98554.13;4921263;29;1120;-77
2022/10/20 11:55:42;;;;;;;;;;;;;;;21.52;27.53;98553.16;4937504;29;791;-78
2022/10/20 11:58:26;;;;;;;;;;;;;;;21.13;28.37;98559.41;4921349;29;827;-78
2022/10/20 12:00:51;;;;;;;;;;;;;;;20.98;28.34;98551.16;4921251;29;1283;-78
2022/10/20 12:03:36;;;;;;;;;;;;;;;20.66;29.01;98545.97;4937113;29;902;-78
2022/10/20 12:06:13;;;;;;;;;;;;;;;20.74;28.64;98553.13;4921553;29;1990;-78
2022/10/20 12:08:38;;;;;;;;;;;;;;;21.38;27.99;98544.88;4921271;29;1105;-78
2022/10/20 12:11:22;;;;;;;;;;;;;;;21.40;28.01;98553.75;4919672;29;1096;-79
2022/10/20 12:13:51;;;;;;;;;;;;;;;21.13;28.36;98550.94;4928983;29;1263;-78
2022/10/20 12:16:35;;;;;;;;;;;;;;;20.98;28.66;98556.00;4957321;29;1247;-77
2022/10/20 12:19:04;;;;;;;;;;;;;;;21.04;28.45;98566.44;4938116;29;1261;-77
2022/10/20 12:21:48;;;;;;;;;;;;;;;21.18;28.13;98571.06;4895086;29;1276;-78
2022/10/20 12:24:31;;;;;;;;;;;;;;;21.39;27.90;98571.97;4896225;29;1317;-78
2022/10/20 12:27:12;;;;;;;;;;;;;;;21.07;28.29;98556.28;4895094;29;1995;-78
2022/10/20 12:29:41;;;;;;;;;;;;;;;20.89;28.40;98569.91;4896482;29;1229;-78
2022/10/20 12:32:24;;;;;;;;;;;;;;;20.86;28.43;98565.88;4897705;29;1335;-78
2022/10/20 12:34:53;;;;;;;;;;;;;;;21.02;28.37;98562.41;4895905;29;1166;-78
2022/10/20 12:37:24;;;;;;;;;;;;;;;21.20;27.97;98565.78;4898695;29;1063;-78
2022/10/20 12:39:50;;;;;;;;;;;;;;;21.55;27.39;98569.25;4899267;29;851;-78
2022/10/20 12:42:22;;;;;;;;;;;;;;;20.99;28.21;98563.28;4899118;29;791;-78
2022/10/20 12:44:48;;;;;;;;;;;;;;;20.99;28.16;98574.59;4899208;29;725;-78
2022/10/20 12:47:22;;;;;;;;;;;;;;;20.93;28.28;98570.63;4898863;29;1914;-78
2022/10/20 12:49:54;;;;;;;;;;;;;;;21.30;27.89;98570.50;4901159;29;740;-78
2022/10/20 12:52:20;;;;;;;;;;;;;;;21.49;27.48;98568.16;4923007;29;1248;-78
2022/10/20 12:54:46;;;;;;;;;;;;;;;20.91;28.56;98581.59;4944857;29;786;-78
2022/10/20 12:57:24;;;;;;;;;;;;;;;21.03;28.12;98583.81;4924263;29;960;-78
2022/10/20 12:59:50;;;;;;;;;;;;;;;20.90;28.38;98582.81;4924446;29;728;-78
2022/10/20 13:02:16;;;;;;;;;;;;;;;21.26;27.72;98583.88;4940161;29;811;-78
2022/10/20 13:08:19;;;;;;;;;;;;;;;20.99;28.22;98591.59;4940161;29;724;-77
2022/10/20 13:10:45;;;;;;;;;;;;;;;20.74;28.45;98595.56;4940219;29;784;-77
2022/10/20 13:13:11;;;;;;;;;;;;;;;21.01;28.13;98583.44;4940174;29;849;-78
2022/10/20 13:15:42;;;;;;;;;;;;;;;21.02;28.13;98591.50;4924201;29;1189;-78
2022/10/20 13:18:18;;;;;;;;;;;;;;;21.24;27.98;98591.16;4924163;29;1146;-78
2022/10/20 13:20:51;;;;;;;;;;;;;;;21.52;27.12;98584.28;4908306;29;1130;-78
2022/10/20 13:23:17;;;;;;;;;;;;;;;21.24;27.29;98586.34;4923770;29;1216;-78
2022/10/20 13:25:47;;;;;;;;;;;;;;;20.90;28.24;98588.47;4939628;29;1969;-78
2022/10/20 13:28:13;;;;;;;;;;;;;;;20.85;28.20;98586.13;4914141;29;1156;-78
2022/10/20 13:30:58;;;;;;;;;;;;;;;21.09;28.07;98590.63;4939675;29;830;-78
2022/10/20 13:33:30;;;;;;;;;;;;;;;21.56;27.26;98590.69;4939087;29;947;-78
2022/10/20 13:36:03;;;;;;;;;;;;;;;21.38;27.26;98590.97;4939738;29;885;-78
2022/10/20 13:38:37;;;;;;;;;;;;;;;21.07;28.02;98591.03;4939645;29;1205;-79
2022/10/20 13:41:06;;;;;;;;;;;;;;;20.97;28.19;98591.19;4923658;29;717;-78
2022/10/20 13:43:34;;;;;;;;;;;;;;;21.10;27.58;98592.22;4924256;29;926;-78
2022/10/20 13:46:00;;;;;;;;;;;;;;;21.18;27.81;98588.03;4911950;29;1903;-78
2022/10/20 13:48:38;;;;;;;;;;;;;;;21.42;27.39;98591.72;4918762;29;1291;-78
2022/10/20 13:51:23;;;;;;;;;;;;;;;21.47;27.07;98588.41;4923449;29;839;-78